Uintah, Utah
Current Conditions -  °F | °C
As of 6:58 PM on Friday 21 Nov 2014 (Local Time) from KHIF Reporting Station
Clear Clear  
Wind Chill: 36°   Ceiling: Unl
Heat Index: 36°   Visibility: 10mi
Dew Point: 23°   Wind: 0mph
Humidity: 60%   Direction: NA
Pressure: 29.99"   Gusts: NA
Location:  41.162°N, 111.972°W
Report Text: KHIF 220158Z AUTO 00000KT 10SM CLR 02/M05 A2999 RMK AO2 SLP162 T00221049
Loading
Personal Weather Stations






























Interactive Weather Map New forecast layout! Learn more

10-Day Weather Forecast

Advertisements
Track Severe Weather on mobile